עמוד ראשי
תמונות לווין תחזית 10-יוםאקליםתחזית ים סופות טרופיות ברקים שדות תעופהשאלות נפוצות עלון אודות
מזג אוויר : אירופה אפריקה אמריקה הצפונית אמריקה הדרומית אסיה אוסטרליה-אוקיאניה אחרים
שפות איש קשר

שטוטגרט, גרמניה

קו רוחב: 48-41N, קו אורך: 009-13E, גובה: 396מטר


METAR: EDDS 040450Z VRB01KT CAVOK 17/14 Q1014 NOSIG
TAF: EDDS 032300Z 0400/0424 VRB03KT CAVOK BECMG 0407/0410 26008KT TEMPO 0411/0418 27015G25KT SHRA BKN030CB BECMG 0418/0421 VRB03KT

זמן: 07:19 (05:19 UTC)

תצפית מזג אוויר נוכחית

הדו"ח נערך לפני 29דקות, בשעה 04:50 UTC
רוח 1קשר עם כיוונים משתנים
טמפרטורת 17 צלסיוס
לחות 82%
לחץ 1014 hPa
ראות 10 קילומטר או יותר
ללא עננים שבסיסם נמוך מ 1500 רגל או קומולונימבוס

שנה יחידות

תחזית

הדו"ח נערך לפני 6 שעות ו 19דקות, בשעה 23:00 UTC
תחזית בתוקף מ 04 ב 00 UTC עד 04 ב 24 UTC
רוח 3קשר עם כיוונים משתנים
ראות 10 קילומטר או יותר
ללא עננים שבסיסם נמוך מ 1500 רגל או קומולונימבוס
יעשה מ
04 ב 07 UTC עד 04 ב 10 UTC
רוח 8קשר מכיוון מערב
זמנית מ -
04 ב 11 UTC עד 04 ב 18 UTC
רוח 15קשר מכיוון מערב עם משבים עד 25קשר
עננים בינוניים בגובה 3000רגל , קומולונימבוס.
ממטרי גשם
יעשה מ
04 ב 18 UTC עד 04 ב 21 UTC
רוח 3קשר עם כיוונים משתנים
המידע באתר זה מותנה של תניית פטור
מזג אוויר : אירופה אפריקה אמריקה הצפונית אמריקה הדרומית אסיה אוסטרליה-אוקיאניה אחרים
תמונות לווין תחזית 10-יוםאקליםתחזית ים סופות טרופיות ברקים שדות תעופהשאלות נפוצות שפות איש קשר עלון אודות